This is the latest recevied weather packets stored in our database for station/object IZ5TJI-3. If no packets are shown the sender has not sent any weather packets the latest 1 day(s).
| Time | Temp. | Humidity | Pressure | Rain* | Wind** | Luminosity | Snow |
|---|---|---|---|---|---|---|---|
| 1778039981 | 13.89° C | 92% | 1009.2 hPa | 1.02 mm | - | - | - |
| 1778039081 | 13.89° C | 92% | 1009.4 hPa | 2.54 mm | - | - | - |
| 1778038181 | 13.89° C | 92% | 1009.4 hPa | 2.54 mm | - | - | - |
| 1778035514 | 14.44° C | 92% | 1009.6 hPa | 12.19 mm | - | - | - |
| 1778034614 | 13.89° C | 93% | 1009.2 hPa | 24.64 mm | - | - | - |
| 1778033714 | 13.89° C | 93% | 1009.4 hPa | 21.59 mm | - | - | - |
| 1778025615 | 14.44° C | 92% | 1010.6 hPa | 0 mm | - | - | - |
| 1778024715 | 14.44° C | 92% | 1010.3 hPa | 1.02 mm | - | - | - |
| 1778023815 | 14.44° C | 92% | 1010.3 hPa | 4.06 mm | - | - | - |
| 1778022915 | 14.44° C | 92% | 1010.5 hPa | 4.06 mm | - | - | - |
| 1778022015 | 14.44° C | 92% | 1010.8 hPa | 5.08 mm | - | - | - |
| 1778021115 | 14.44° C | 92% | 1010.9 hPa | 4.06 mm | - | - | - |
| 1778020215 | 14.44° C | 92% | 1011.3 hPa | 1.52 mm | - | - | - |
| 1778019315 | 15° C | 92% | 1011.3 hPa | 0.51 mm | - | - | - |
| 1778018415 | 15° C | 91% | 1011.5 hPa | 1.02 mm | - | - | - |
| 1778016615 | 15° C | 91% | 1011.6 hPa | 0.51 mm | - | - | - |
| 1778015715 | 15° C | 90% | 1011.7 hPa | 0 mm | - | - | - |
| 1778014815 | 15.56° C | 89% | 1011.9 hPa | 0 mm | - | - | - |
| 1778013915 | 15.56° C | 89% | 1012 hPa | 0 mm | - | - | - |
| 1778009415 | 16.67° C | 85% | 1011.6 hPa | 0 mm | - | - | - |
* Rain latest hour (hover to see other rain measurements)
** Current wind speed in m/s (hover to see current wind gust speed)